Serena Joye — VB3539 — position and weather

sailwx.info

Track history (hours):
 
Tides and Currents Weather Stations Pressure Air Temp Water Temp Dewpoint Dewpoint Depression Visibility Wind Speed Wind Dir Waves Ship Positions

Serena Joye

Last reported at 2018-May-22 11:48 UTC. Time now 2018-May-23 01:35 UTC.
Position N 50°38' W 128°22'.

Length 24 m; draft 2.8 m.

Type: Fishing. MMSI: 316002916.

Date/timePositionNaut miles runAvg speedWind from/ knotsBaromVisibWave heightAir tempDewpointWater temp
2018-May-22 11:48N 50°38' W 128°22'3 8.5
2018-May-22 11:30N 50°40' W 128°24'4 8.4
2018-May-22 11:00N 50°44' W 128°26'4 7.5
2018-May-22 10:30N 50°48' W 128°27'5 8.0
2018-May-22 09:55N 50°50' W 128°20'4 8.3
2018-May-22 09:30N 50°51' W 128°15'8 8.5
2018-May-22 08:31N 50°53' W 128°03'4 9.6
2018-May-22 08:08N 50°53' W 127°57'1 9.8
2018-May-22 08:00N 50°53' W 127°55'510.0
2018-May-22 07:30N 50°51' W 127°47'5 9.6
2018-May-22 07:00N 50°50' W 127°40'5 9.9
2018-May-22 06:30N 50°48' W 127°33'4 8.4
2018-May-22 06:00N 50°45' W 127°28'1 2.7
2018-May-22 05:30N 50°43' W 127°28'0 0.0
2018-May-22 05:00N 50°43' W 127°28'0 0.0
2018-May-22 04:29N 50°43' W 127°28'1 1.6
2018-May-22 04:00N 50°43' W 127°29'0 0.1
2018-May-22 03:28N 50°43' W 127°29'0 0.1
2018-May-22 03:00N 50°43' W 127°29'0 0.0
2018-May-22 02:30N 50°43' W 127°29'0 0.1
2018-May-22 02:00N 50°43' W 127°29'0 0.1
2018-May-22 01:30N 50°43' W 127°29'0 0.1
2018-May-22 01:00N 50°43' W 127°29'0 0.0
2018-May-22 00:30N 50°43' W 127°29'0 0.0
2018-May-22 00:00N 50°43' W 127°29'0 0.0
2018-May-21 23:30N 50°43' W 127°29'0 0.1
2018-May-21 23:00N 50°43' W 127°29'0 0.1
2018-May-21 22:30N 50°43' W 127°29'0 0.1
2018-May-21 22:00N 50°43' W 127°29'0 0.1
2018-May-21 21:30N 50°43' W 127°29'0 0.1
2018-May-21 21:00N 50°43' W 127°29'0 0.1
2018-May-21 20:30N 50°43' W 127°29'0 0.0
2018-May-21 20:00N 50°43' W 127°29'0 0.1
2018-May-21 19:27N 50°43' W 127°29'0 0.0
2018-May-21 18:56N 50°43' W 127°29'0 0.1
2018-May-21 18:13N 50°43' W 127°29'0 0.1
2018-May-21 17:46N 50°43' W 127°29'0 0.1
2018-May-21 17:30N 50°43' W 127°29'0 0.0
2018-May-21 16:52N 50°43' W 127°29'0 0.0
2018-May-21 10:57N 50°43' W 127°29'0 0.0
2018-May-21 10:30N 50°43' W 127°29'0 0.0
2018-May-21 10:00N 50°43' W 127°29'0 0.0
2018-May-21 09:30N 50°43' W 127°29'0 0.0
2018-May-21 09:00N 50°43' W 127°29'0 0.1
2018-May-21 08:29N 50°43' W 127°29'0 0.0
2018-May-21 07:59N 50°43' W 127°29'0 0.0
2018-May-21 07:30N 50°43' W 127°29'0 0.1
2018-May-21 07:00N 50°43' W 127°29'0 0.0
2018-May-21 06:29N 50°43' W 127°29'0 0.0
2018-May-21 06:00N 50°43' W 127°29'0 0.1
2018-May-21 05:30N 50°43' W 127°29'0 0.1
2018-May-21 05:00N 50°43' W 127°29'0 0.0
2018-May-21 04:30N 50°43' W 127°29'0 0.0
2018-May-21 04:00N 50°43' W 127°29'0 0.0
2018-May-21 03:30N 50°43' W 127°29'0 0.0
2018-May-21 03:00N 50°43' W 127°29'0 0.0
2018-May-21 02:30N 50°43' W 127°29'0 0.1
2018-May-21 02:00N 50°43' W 127°29'0 0.1
2018-May-21 01:30N 50°43' W 127°29'0 0.0
2018-May-21 01:00N 50°43' W 127°29'0 0.0
2018-May-21 00:30N 50°43' W 127°29'0 0.0
2018-May-20 23:57N 50°43' W 127°29'0 0.1
2018-May-20 23:30N 50°43' W 127°29'0 0.0
2018-May-20 23:00N 50°43' W 127°29'0 0.0
2018-May-20 22:30N 50°43' W 127°29'0 0.1
2018-May-20 22:00N 50°43' W 127°29'0 0.0
2018-May-20 21:30N 50°43' W 127°29'0 0.1
2018-May-20 21:00N 50°43' W 127°29'0 0.1
2018-May-20 20:30N 50°43' W 127°29'0 0.0
2018-May-20 20:00N 50°43' W 127°29'0 0.0
2018-May-20 19:30N 50°43' W 127°29'0 0.0
2018-May-20 19:00N 50°43' W 127°29'0 0.0
2018-May-20 18:30N 50°43' W 127°29'0 0.0
2018-May-20 18:00N 50°43' W 127°29'0 0.0
2018-May-20 17:30N 50°43' W 127°29'0 0.0
2018-May-20 16:57N 50°43' W 127°29'0 0.0
2018-May-20 16:30N 50°43' W 127°29'0 0.0
2018-May-20 15:57N 50°43' W 127°29'0 0.0
2018-May-20 14:14N 50°43' W 127°29'0 0.0
2018-May-20 14:00N 50°43' W 127°29'0 0.0
2018-May-20 11:00N 50°43' W 127°29'0 0.1
2018-May-20 10:20N 50°43' W 127°29'0 0.1
2018-May-20 09:57N 50°43' W 127°29'0 0.1
2018-May-20 09:27N 50°43' W 127°29'0 0.0
2018-May-20 09:00N 50°43' W 127°29'0 0.1
2018-May-20 08:30N 50°43' W 127°29'0 0.1
2018-May-20 08:00N 50°43' W 127°29'0 0.1
2018-May-20 07:30N 50°43' W 127°29'0 0.0
2018-May-20 07:00N 50°43' W 127°29'0 0.0
2018-May-20 06:30N 50°43' W 127°29'0 0.1
2018-May-20 06:00N 50°43' W 127°29'0 0.0
2018-May-20 05:30N 50°43' W 127°29'0 0.0
2018-May-20 04:59N 50°43' W 127°29'0 0.0
2018-May-20 01:50N 50°43' W 127°29'0 0.0
2018-May-20 00:44N 50°43' W 127°29'0 0.2
2018-May-20 00:30N 50°43' W 127°29'0 0.0
2018-May-20 00:00N 50°43' W 127°29'0 0.1
2018-May-19 23:30N 50°43' W 127°29'0 0.0
2018-May-19 23:00N 50°43' W 127°29'0 0.0
2018-May-19 22:13N 50°43' W 127°29'0 0.0
2018-May-19 22:00N 50°43' W 127°29'0 0.0
2018-May-19 21:30N 50°43' W 127°29'0 0.0
2018-May-19 20:58N 50°43' W 127°29'0 0.0
2018-May-19 20:30N 50°43' W 127°29'0 0.0
2018-May-19 20:00N 50°43' W 127°29'0 0.0
2018-May-19 19:28N 50°43' W 127°29'0 0.0
2018-May-19 19:00N 50°43' W 127°29'0 0.0
2018-May-19 18:30N 50°43' W 127°29'0 0.0
2018-May-19 18:00N 50°43' W 127°29'0 0.1
2018-May-19 17:30N 50°43' W 127°29'0 0.1
2018-May-19 17:00N 50°43' W 127°29'0 0.0
2018-May-19 16:30N 50°43' W 127°29'0 0.0
2018-May-19 16:00N 50°43' W 127°29'0 0.1
2018-May-19 15:27N 50°43' W 127°29'0 0.1
2018-May-19 14:44N 50°43' W 127°29'0 0.0
2018-May-19 14:27N 50°43' W 127°29'0 0.0
2018-May-19 12:12N 50°43' W 127°29'0 0.0
2018-May-19 11:59N 50°43' W 127°29'0 0.0
2018-May-19 11:11N 50°43' W 127°29'0 0.0
2018-May-19 10:45N 50°43' W 127°29'0 0.2
2018-May-19 10:29N 50°43' W 127°29'0 0.0
2018-May-19 09:58N 50°43' W 127°29'0 0.0
2018-May-19 09:02N 50°43' W 127°29'0 0.0
2018-May-19 09:00N 50°43' W 127°29'0 0.0
2018-May-19 08:30N 50°43' W 127°29'0 0.1
2018-May-19 08:00N 50°43' W 127°29'0 0.0
2018-May-19 07:30N 50°43' W 127°29'0 0.1
2018-May-19 07:00N 50°43' W 127°29'0 0.0
2018-May-19 06:30N 50°43' W 127°29'0 0.1
2018-May-19 06:00N 50°43' W 127°29'0 0.0
2018-May-19 05:30N 50°43' W 127°29'0 0.1
2018-May-19 05:00N 50°43' W 127°29'0 0.1
2018-May-19 04:30N 50°43' W 127°29'0 0.0
2018-May-19 04:00N 50°43' W 127°29'0 0.0
2018-May-19 03:30N 50°43' W 127°29'0 0.1
2018-May-19 03:00N 50°43' W 127°29'0 0.1
2018-May-19 02:30N 50°43' W 127°29'0 0.0
2018-May-19 02:00N 50°43' W 127°29'0 0.0
2018-May-19 01:30N 50°43' W 127°29'0 0.0
2018-May-19 01:00N 50°43' W 127°29'0 0.0
2018-May-19 00:30N 50°43' W 127°29'0 0.0
2018-May-18 21:29N 50°43' W 127°29'0 0.0
2018-May-18 21:00N 50°43' W 127°29'0 0.0
2018-May-18 20:30N 50°43' W 127°29'0 0.0
2018-May-18 20:00N 50°43' W 127°29'0 0.0
2018-May-18 19:29N 50°43' W 127°29'0 0.0
2018-May-18 17:12N 50°43' W 127°29'0 0.2
2018-May-18 16:59N 50°43' W 127°29'0 0.0
2018-May-18 16:29N 50°43' W 127°29'0 0.0
2018-May-18 15:58N 50°43' W 127°29'0 0.1
2018-May-18 15:30N 50°43' W 127°29'0 0.0
2018-May-18 14:24N 50°43' W 127°29'0 0.0
2018-May-18 13:59N 50°43' W 127°29'0 0.0
2018-May-18 13:30N 50°43' W 127°29'0 0.0
2018-May-18 12:58N 50°43' W 127°29'0 0.0
2018-May-18 12:28N 50°43' W 127°29'0 0.0
2018-May-18 12:00N 50°43' W 127°29'0 0.1
2018-May-18 11:29N 50°43' W 127°29'0 0.1
2018-May-18 11:00N 50°43' W 127°29'0 0.0
2018-May-18 10:28N 50°43' W 127°29'0 0.0
2018-May-18 09:54N 50°43' W 127°29'0 0.1
2018-May-18 09:28N 50°43' W 127°29'0 0.0
2018-May-18 08:56N 50°43' W 127°29'0 0.1
2018-May-18 08:30N 50°43' W 127°29'0 0.0
2018-May-18 07:56N 50°43' W 127°29'0 0.0
2018-May-18 06:01N 50°43' W 127°29'0 0.0
2018-May-18 06:00N 50°43' W 127°29'0 0.0
2018-May-18 05:10N 50°43' W 127°29'0 0.0
2018-May-18 04:57N 50°43' W 127°29'0 0.1
2018-May-18 04:30N 50°43' W 127°29'0 0.0
2018-May-18 04:00N 50°43' W 127°29'0 0.1
2018-May-18 03:30N 50°43' W 127°29'0 0.0
2018-May-18 02:49N 50°43' W 127°29'0 0.0
2018-May-18 02:30N 50°43' W 127°29'0 0.0
2018-May-18 02:00N 50°43' W 127°29'0 0.0
2018-May-18 01:28N 50°43' W 127°29'0 0.0
2018-May-18 01:00N 50°43' W 127°29'0 0.0
2018-May-18 00:30N 50°43' W 127°29'0 0.0
2018-May-18 00:00N 50°43' W 127°29'0 0.0
2018-May-17 23:30N 50°43' W 127°29'0 0.0
2018-May-17 23:00N 50°43' W 127°29'0 0.0
2018-May-17 22:30N 50°43' W 127°29'0 0.0
2018-May-17 22:00N 50°43' W 127°29'0 0.0
2018-May-17 21:30N 50°43' W 127°29'0 0.0
2018-May-17 20:59N 50°43' W 127°29'0 0.0
2018-May-17 20:28N 50°43' W 127°29'0 0.0
2018-May-17 19:59N 50°43' W 127°29'0 0.0
2018-May-17 19:30N 50°43' W 127°29'0 0.0
2018-May-17 18:57N 50°43' W 127°29'0 0.0
2018-May-17 18:30N 50°43' W 127°29'0 0.1
2018-May-17 17:59N 50°43' W 127°29'0 0.0
2018-May-17 17:28N 50°43' W 127°29'0 0.1
2018-May-17 17:00N 50°43' W 127°29'0 0.0
2018-May-17 16:30N 50°43' W 127°29'0 0.0
2018-May-17 15:58N 50°43' W 127°29'0 0.1
2018-May-17 15:30N 50°43' W 127°29'0 0.1
2018-May-17 14:58N 50°43' W 127°29'0 0.0
2018-May-17 12:59N 50°43' W 127°29'0 0.0
2018-May-17 12:30N 50°43' W 127°29'0 0.1
2018-May-17 11:59N 50°43' W 127°29'0 0.1
2018-May-17 11:29N 50°43' W 127°29'0 0.0
2018-May-17 11:00N 50°43' W 127°29'0 0.0
2018-May-17 09:49N 50°43' W 127°29'0 0.1
2018-May-17 09:28N 50°43' W 127°29'0 0.0
2018-May-17 08:17N 50°43' W 127°29'0 0.0
2018-May-17 07:52N 50°43' W 127°29'0 0.0
2018-May-17 06:44N 50°43' W 127°29'0 0.0
2018-May-17 06:30N 50°43' W 127°29'0 0.1
2018-May-17 06:00N 50°43' W 127°29'0 0.0
2018-May-17 05:30N 50°43' W 127°29'0 0.0
2018-May-17 05:00N 50°43' W 127°29'0 0.0
2018-May-17 04:30N 50°43' W 127°29'0 0.0
2018-May-17 04:00N 50°43' W 127°29'0 0.0
2018-May-17 03:30N 50°43' W 127°29'0 0.0
2018-May-17 03:00N 50°43' W 127°29'0 0.0
2018-May-17 02:30N 50°43' W 127°29'0 0.0
2018-May-17 01:59N 50°43' W 127°29'0 0.0
2018-May-17 01:30N 50°43' W 127°29'0 0.1
2018-May-17 00:57N 50°43' W 127°29'1 1.6
2018-May-17 00:30N 50°43' W 127°28'0 0.0
2018-May-17 00:00N 50°43' W 127°28'0 0.0
2018-May-16 23:00N 50°43' W 127°28'0 0.0
2018-May-16 22:29N 50°43' W 127°28'0 0.0
2018-May-16 21:59N 50°43' W 127°28'0 0.0
2018-May-16 20:41N 50°43' W 127°28'0 0.0
2018-May-16 20:30N 50°43' W 127°28'0 0.0
2018-May-16 20:00N 50°43' W 127°28'0 0.0
2018-May-16 19:30N 50°43' W 127°28'0 0.0
2018-May-16 18:21N 50°43' W 127°28'0 0.0
2018-May-16 18:00N 50°43' W 127°28'0 0.0
2018-May-16 17:27N 50°43' W 127°28'1 0.9
2018-May-16 16:46N 50°43' W 127°29'1 2.3
2018-May-16 16:30N 50°43' W 127°28'0 0.0
2018-May-16 16:00N 50°43' W 127°28'0 0.0
2018-May-16 15:30N 50°43' W 127°28'0 0.0
2018-May-16 14:51N 50°43' W 127°28'0 0.0
2018-May-16 14:24N 50°43' W 127°28'0 0.0
2018-May-16 13:59N 50°43' W 127°28'0 0.0
2018-May-16 13:29N 50°43' W 127°28'0 0.0
2018-May-16 12:56N 50°43' W 127°28'0 0.0
2018-May-16 12:19N 50°43' W 127°28'0 0.0
2018-May-16 11:37N 50°43' W 127°28'1 5.0
2018-May-16 11:23N 50°44' W 127°28'3 7.6
2018-May-16 11:00N 50°47' W 127°31'4 8.6
2018-May-16 10:30N 50°49' W 127°37'5 9.0
2018-May-16 10:00N 50°50' W 127°44'5 9.7
2018-May-16 09:29N 50°52' W 127°51'5 9.6
2018-May-16 09:00N 50°53' W 127°58'5 9.3
2018-May-16 08:29N 50°53' W 128°06'4 9.1
2018-May-16 08:00N 50°51' W 128°12'4 8.8
2018-May-16 07:30N 50°50' W 128°19'4 8.6
2018-May-16 07:01N 50°48' W 128°25'4 7.1
2018-May-16 06:30N 50°45' W 128°26'4 8.9
2018-May-16 06:00N 50°41' W 128°24'4 8.6
2018-May-16 05:30N 50°37' W 128°20'5 8.7
2018-May-16 04:54N 50°33' W 128°15'6 8.7
2018-May-16 04:14N 50°29' W 128°09'3 8.9
2018-May-16 03:56N 50°27' W 128°06'1 0.1
2018-May-15 13:48N 50°27' W 128°05'8 8.6
2018-May-15 12:50N 50°32' W 128°15'4 8.5
2018-May-15 12:19N 50°35' W 128°19'3 8.8
2018-May-15 12:00N 50°37' W 128°22'5 9.3
2018-May-15 11:30N 50°42' W 128°25'4 8.9
2018-May-15 11:01N 50°46' W 128°27'4 8.5
2018-May-15 10:30N 50°49' W 128°23'5 9.9
2018-May-15 10:00N 50°51' W 128°15'5 9.3
2018-May-15 09:30N 50°53' W 128°08'5 8.9
2018-May-15 08:59N 50°54' W 128°01'4 8.6
2018-May-15 08:30N 50°53' W 127°55'4 7.9
2018-May-15 08:00N 50°52' W 127°49'4 8.5
2018-May-15 07:30N 50°50' W 127°42'4 8.5
2018-May-15 07:00N 50°49' W 127°36'4 8.4
2018-May-15 06:30N 50°47' W 127°30'4 7.7
2018-May-15 06:00N 50°43' W 127°28'0 0.1
2018-May-15 05:30N 50°43' W 127°28'0 0.0
2018-May-15 05:00N 50°43' W 127°28'0 0.0
2018-May-15 04:30N 50°43' W 127°28'0 0.0
2018-May-15 04:00N 50°43' W 127°28'0 0.0
2018-May-15 03:30N 50°43' W 127°28'0 0.0
2018-May-15 02:58N 50°43' W 127°28'0 0.0
2018-May-15 02:30N 50°43' W 127°28'0 0.0
2018-May-15 02:00N 50°43' W 127°28'0 0.0
2018-May-15 01:30N 50°43' W 127°28'0 0.0
2018-May-15 01:00N 50°43' W 127°28'0 0.0
2018-May-15 00:30N 50°43' W 127°28'0 0.0
2018-May-15 00:00N 50°43' W 127°28'0 0.0
2018-May-14 23:30N 50°43' W 127°28'0 0.7
2018-May-14 23:00N 50°43' W 127°28'0 0.0
2018-May-14 22:30N 50°43' W 127°28'0 0.8
2018-May-14 22:00N 50°43' W 127°28'0 0.0
2018-May-14 21:30N 50°43' W 127°28'0 0.0
2018-May-14 21:00N 50°43' W 127°28'0 0.0
2018-May-14 17:31N 50°43' W 127°28'0 0.0
2018-May-14 17:30N 50°43' W 127°28'0 0.0
2018-May-14 12:17N 50°43' W 127°28'0 0.0
2018-May-14 12:00N 50°43' W 127°28'0 0.0
2018-May-14 11:30N 50°43' W 127°28'0 0.0
2018-May-14 11:00N 50°43' W 127°28'0 0.0
2018-May-14 10:29N 50°43' W 127°28'0 0.0
2018-May-14 10:00N 50°43' W 127°28'0 0.0
2018-May-14 09:30N 50°43' W 127°28'0 0.0
2018-May-14 09:00N 50°43' W 127°28'0 0.0
2018-May-14 08:29N 50°43' W 127°28'0 0.0
2018-May-14 08:00N 50°43' W 127°28'0 0.0
2018-May-14 07:30N 50°43' W 127°28'0 0.0
2018-May-14 07:00N 50°43' W 127°28'0 0.0
2018-May-14 06:30N 50°43' W 127°28'0 0.0
2018-May-14 05:59N 50°43' W 127°28'0 0.0
2018-May-14 05:30N 50°43' W 127°28'3 6.5
2018-May-14 05:00N 50°47' W 127°30'5 9.8
2018-May-14 04:30N 50°48' W 127°37'5 9.8
2018-May-14 04:00N 50°50' W 127°44'5 9.5
2018-May-14 03:30N 50°52' W 127°51'4 7.9
2018-May-14 03:00N 50°54' W 127°56'0 0.0
2018-May-14 02:30N 50°54' W 127°56'0 0.0
2018-May-14 02:00N 50°54' W 127°56'0 0.0
2018-May-14 01:30N 50°54' W 127°56'0 0.0
2018-May-14 01:00N 50°54' W 127°56'0 0.0
2018-May-14 00:28N 50°54' W 127°56'0 0.0
2018-May-13 21:26N 50°54' W 127°56'21 1.7
2018-May-13 09:25N 50°43' W 127°28'0 0.0
2018-May-13 08:53N 50°43' W 127°28'0 0.0
2018-May-13 08:30N 50°43' W 127°28'1 1.3
2018-May-13 07:56N 50°43' W 127°29'0 0.0
2018-May-13 07:30N 50°43' W 127°29'0 0.0
2018-May-13 07:00N 50°43' W 127°29'0 0.0
2018-May-13 06:30N 50°43' W 127°29'0 0.0
2018-May-13 06:00N 50°43' W 127°29'0 0.0
2018-May-13 05:30N 50°43' W 127°29'0 0.0
2018-May-13 04:57N 50°43' W 127°29'0 0.0
2018-May-13 04:30N 50°43' W 127°29'0 0.0
2018-May-13 04:00N 50°43' W 127°29'0 0.0
2018-May-13 03:30N 50°43' W 127°29'0 0.0
2018-May-13 03:00N 50°43' W 127°29'0 0.0
2018-May-13 02:28N 50°43' W 127°29'0 0.0
2018-May-13 02:00N 50°43' W 127°29'0 0.0
2018-May-13 00:35N 50°43' W 127°29'0 0.0
2018-May-13 00:20N 50°43' W 127°29'0 0.0
2018-May-12 23:58N 50°43' W 127°29'0 0.0
2018-May-12 23:20N 50°43' W 127°29'0 0.0
2018-May-12 22:52N 50°43' W 127°29'0 0.0
2018-May-12 21:37N 50°43' W 127°29'0 0.0
2018-May-12 21:28N 50°43' W 127°29'0 0.0
2018-May-12 20:58N 50°43' W 127°29'0 0.0
2018-May-12 20:26N 50°43' W 127°29'0 0.0
2018-May-12 19:59N 50°43' W 127°29'0 0.0
2018-May-12 19:30N 50°43' W 127°29'0 0.0
2018-May-12 19:00N 50°43' W 127°29'0 0.0
2018-May-12 18:30N 50°43' W 127°29'0 0.0
2018-May-12 18:00N 50°43' W 127°29'0 0.0
2018-May-12 17:30N 50°43' W 127°29'0 0.0
2018-May-12 17:00N 50°43' W 127°29'0 0.0
2018-May-12 16:30N 50°43' W 127°29'0 0.0
2018-May-12 16:00N 50°43' W 127°29'0 0.0
2018-May-12 15:30N 50°43' W 127°29'0 0.0
2018-May-12 15:00N 50°43' W 127°29'0 0.0
2018-May-12 14:30N 50°43' W 127°29'0 0.0
2018-May-12 13:56N 50°43' W 127°29'0 0.0
2018-May-12 13:30N 50°43' W 127°29'0 0.0
2018-May-12 13:00N 50°43' W 127°29'0 0.0
2018-May-12 12:27N 50°43' W 127°29'0 0.0
2018-May-12 11:59N 50°43' W 127°29'  
Track history (hours):
 
Tides and Currents Weather Stations Pressure Air Temp Water Temp Dewpoint Dewpoint Depression Visibility Wind Speed Wind Dir Waves Ship Positions

Serena Joye

Last reported at 2018-May-22 11:48 UTC. Time now 2018-May-23 01:35 UTC.
Position N 50°38' W 128°22'.

Length 24 m; draft 2.8 m.

Type: Fishing. MMSI: 316002916.

Date/timePositionNaut miles runAvg speedWind from/ knotsBaromVisibWave heightAir tempDewpointWater temp
2018-May-22 11:48N 50°38' W 128°22'3 8.5
2018-May-22 11:30N 50°40' W 128°24'4 8.4
2018-May-22 11:00N 50°44' W 128°26'4 7.5
2018-May-22 10:30N 50°48' W 128°27'5 8.0
2018-May-22 09:55N 50°50' W 128°20'4 8.3
2018-May-22 09:30N 50°51' W 128°15'8 8.5
2018-May-22 08:31N 50°53' W 128°03'4 9.6
2018-May-22 08:08N 50°53' W 127°57'1 9.8
2018-May-22 08:00N 50°53' W 127°55'510.0
2018-May-22 07:30N 50°51' W 127°47'5 9.6
2018-May-22 07:00N 50°50' W 127°40'5 9.9
2018-May-22 06:30N 50°48' W 127°33'4 8.4
2018-May-22 06:00N 50°45' W 127°28'1 2.7
2018-May-22 05:30N 50°43' W 127°28'0 0.0
2018-May-22 05:00N 50°43' W 127°28'0 0.0
2018-May-22 04:29N 50°43' W 127°28'1 1.6
2018-May-22 04:00N 50°43' W 127°29'0 0.1
2018-May-22 03:28N 50°43' W 127°29'0 0.1
2018-May-22 03:00N 50°43' W 127°29'0 0.0
2018-May-22 02:30N 50°43' W 127°29'0 0.1
2018-May-22 02:00N 50°43' W 127°29'0 0.1
2018-May-22 01:30N 50°43' W 127°29'0 0.1
2018-May-22 01:00N 50°43' W 127°29'0 0.0
2018-May-22 00:30N 50°43' W 127°29'0 0.0
2018-May-22 00:00N 50°43' W 127°29'0 0.0
2018-May-21 23:30N 50°43' W 127°29'0 0.1
2018-May-21 23:00N 50°43' W 127°29'0 0.1
2018-May-21 22:30N 50°43' W 127°29'0 0.1
2018-May-21 22:00N 50°43' W 127°29'0 0.1
2018-May-21 21:30N 50°43' W 127°29'0 0.1
2018-May-21 21:00N 50°43' W 127°29'0 0.1
2018-May-21 20:30N 50°43' W 127°29'0 0.0
2018-May-21 20:00N 50°43' W 127°29'0 0.1
2018-May-21 19:27N 50°43' W 127°29'0 0.0
2018-May-21 18:56N 50°43' W 127°29'0 0.1
2018-May-21 18:13N 50°43' W 127°29'0 0.1
2018-May-21 17:46N 50°43' W 127°29'0 0.1
2018-May-21 17:30N 50°43' W 127°29'0 0.0
2018-May-21 16:52N 50°43' W 127°29'0 0.0
2018-May-21 10:57N 50°43' W 127°29'0 0.0
2018-May-21 10:30N 50°43' W 127°29'0 0.0
2018-May-21 10:00N 50°43' W 127°29'0 0.0
2018-May-21 09:30N 50°43' W 127°29'0 0.0
2018-May-21 09:00N 50°43' W 127°29'0 0.1
2018-May-21 08:29N 50°43' W 127°29'0 0.0
2018-May-21 07:59N 50°43' W 127°29'0 0.0
2018-May-21 07:30N 50°43' W 127°29'0 0.1
2018-May-21 07:00N 50°43' W 127°29'0 0.0
2018-May-21 06:29N 50°43' W 127°29'0 0.0
2018-May-21 06:00N 50°43' W 127°29'0 0.1
2018-May-21 05:30N 50°43' W 127°29'0 0.1
2018-May-21 05:00N 50°43' W 127°29'0 0.0
2018-May-21 04:30N 50°43' W 127°29'0 0.0
2018-May-21 04:00N 50°43' W 127°29'0 0.0
2018-May-21 03:30N 50°43' W 127°29'0 0.0
2018-May-21 03:00N 50°43' W 127°29'0 0.0
2018-May-21 02:30N 50°43' W 127°29'0 0.1
2018-May-21 02:00N 50°43' W 127°29'0 0.1
2018-May-21 01:30N 50°43' W 127°29'0 0.0
2018-May-21 01:00N 50°43' W 127°29'0 0.0
2018-May-21 00:30N 50°43' W 127°29'0 0.0
2018-May-20 23:57N 50°43' W 127°29'0 0.1
2018-May-20 23:30N 50°43' W 127°29'0 0.0
2018-May-20 23:00N 50°43' W 127°29'0 0.0
2018-May-20 22:30N 50°43' W 127°29'0 0.1
2018-May-20 22:00N 50°43' W 127°29'0 0.0
2018-May-20 21:30N 50°43' W 127°29'0 0.1
2018-May-20 21:00N 50°43' W 127°29'0 0.1
2018-May-20 20:30N 50°43' W 127°29'0 0.0
2018-May-20 20:00N 50°43' W 127°29'0 0.0
2018-May-20 19:30N 50°43' W 127°29'0 0.0
2018-May-20 19:00N 50°43' W 127°29'0 0.0
2018-May-20 18:30N 50°43' W 127°29'0 0.0
2018-May-20 18:00N 50°43' W 127°29'0 0.0
2018-May-20 17:30N 50°43' W 127°29'0 0.0
2018-May-20 16:57N 50°43' W 127°29'0 0.0
2018-May-20 16:30N 50°43' W 127°29'0 0.0
2018-May-20 15:57N 50°43' W 127°29'0 0.0
2018-May-20 14:14N 50°43' W 127°29'0 0.0
2018-May-20 14:00N 50°43' W 127°29'0 0.0
2018-May-20 11:00N 50°43' W 127°29'0 0.1
2018-May-20 10:20N 50°43' W 127°29'0 0.1
2018-May-20 09:57N 50°43' W 127°29'0 0.1
2018-May-20 09:27N 50°43' W 127°29'0 0.0
2018-May-20 09:00N 50°43' W 127°29'0 0.1
2018-May-20 08:30N 50°43' W 127°29'0 0.1
2018-May-20 08:00N 50°43' W 127°29'0 0.1
2018-May-20 07:30N 50°43' W 127°29'0 0.0
2018-May-20 07:00N 50°43' W 127°29'0 0.0
2018-May-20 06:30N 50°43' W 127°29'0 0.1
2018-May-20 06:00N 50°43' W 127°29'0 0.0
2018-May-20 05:30N 50°43' W 127°29'0 0.0
2018-May-20 04:59N 50°43' W 127°29'0 0.0
2018-May-20 01:50N 50°43' W 127°29'0 0.0
2018-May-20 00:44N 50°43' W 127°29'0 0.2
2018-May-20 00:30N 50°43' W 127°29'0 0.0
2018-May-20 00:00N 50°43' W 127°29'0 0.1
2018-May-19 23:30N 50°43' W 127°29'0 0.0
2018-May-19 23:00N 50°43' W 127°29'0 0.0
2018-May-19 22:13N 50°43' W 127°29'0 0.0
2018-May-19 22:00N 50°43' W 127°29'0 0.0
2018-May-19 21:30N 50°43' W 127°29'0 0.0
2018-May-19 20:58N 50°43' W 127°29'0 0.0
2018-May-19 20:30N 50°43' W 127°29'0 0.0
2018-May-19 20:00N 50°43' W 127°29'0 0.0
2018-May-19 19:28N 50°43' W 127°29'0 0.0
2018-May-19 19:00N 50°43' W 127°29'0 0.0
2018-May-19 18:30N 50°43' W 127°29'0 0.0
2018-May-19 18:00N 50°43' W 127°29'0 0.1
2018-May-19 17:30N 50°43' W 127°29'0 0.1
2018-May-19 17:00N 50°43' W 127°29'0 0.0
2018-May-19 16:30N 50°43' W 127°29'0 0.0
2018-May-19 16:00N 50°43' W 127°29'0 0.1
2018-May-19 15:27N 50°43' W 127°29'0 0.1
2018-May-19 14:44N 50°43' W 127°29'0 0.0
2018-May-19 14:27N 50°43' W 127°29'0 0.0
2018-May-19 12:12N 50°43' W 127°29'0 0.0
2018-May-19 11:59N 50°43' W 127°29'0 0.0
2018-May-19 11:11N 50°43' W 127°29'0 0.0
2018-May-19 10:45N 50°43' W 127°29'0 0.2
2018-May-19 10:29N 50°43' W 127°29'0 0.0
2018-May-19 09:58N 50°43' W 127°29'0 0.0
2018-May-19 09:02N 50°43' W 127°29'0 0.0
2018-May-19 09:00N 50°43' W 127°29'0 0.0
2018-May-19 08:30N 50°43' W 127°29'0 0.1
2018-May-19 08:00N 50°43' W 127°29'0 0.0
2018-May-19 07:30N 50°43' W 127°29'0 0.1
2018-May-19 07:00N 50°43' W 127°29'0 0.0
2018-May-19 06:30N 50°43' W 127°29'0 0.1
2018-May-19 06:00N 50°43' W 127°29'0 0.0
2018-May-19 05:30N 50°43' W 127°29'0 0.1
2018-May-19 05:00N 50°43' W 127°29'0 0.1
2018-May-19 04:30N 50°43' W 127°29'0 0.0
2018-May-19 04:00N 50°43' W 127°29'0 0.0
2018-May-19 03:30N 50°43' W 127°29'0 0.1
2018-May-19 03:00N 50°43' W 127°29'0 0.1
2018-May-19 02:30N 50°43' W 127°29'0 0.0
2018-May-19 02:00N 50°43' W 127°29'0 0.0
2018-May-19 01:30N 50°43' W 127°29'0 0.0
2018-May-19 01:00N 50°43' W 127°29'0 0.0
2018-May-19 00:30N 50°43' W 127°29'0 0.0
2018-May-18 21:29N 50°43' W 127°29'0 0.0
2018-May-18 21:00N 50°43' W 127°29'0 0.0
2018-May-18 20:30N 50°43' W 127°29'0 0.0
2018-May-18 20:00N 50°43' W 127°29'0 0.0
2018-May-18 19:29N 50°43' W 127°29'0 0.0
2018-May-18 17:12N 50°43' W 127°29'0 0.2
2018-May-18 16:59N 50°43' W 127°29'0 0.0
2018-May-18 16:29N 50°43' W 127°29'0 0.0
2018-May-18 15:58N 50°43' W 127°29'0 0.1
2018-May-18 15:30N 50°43' W 127°29'0 0.0
2018-May-18 14:24N 50°43' W 127°29'0 0.0
2018-May-18 13:59N 50°43' W 127°29'0 0.0
2018-May-18 13:30N 50°43' W 127°29'0 0.0
2018-May-18 12:58N 50°43' W 127°29'0 0.0
2018-May-18 12:28N 50°43' W 127°29'0 0.0
2018-May-18 12:00N 50°43' W 127°29'0 0.1
2018-May-18 11:29N 50°43' W 127°29'0 0.1
2018-May-18 11:00N 50°43' W 127°29'0 0.0
2018-May-18 10:28N 50°43' W 127°29'0 0.0
2018-May-18 09:54N 50°43' W 127°29'0 0.1
2018-May-18 09:28N 50°43' W 127°29'0 0.0
2018-May-18 08:56N 50°43' W 127°29'0 0.1
2018-May-18 08:30N 50°43' W 127°29'0 0.0
2018-May-18 07:56N 50°43' W 127°29'0 0.0
2018-May-18 06:01N 50°43' W 127°29'0 0.0
2018-May-18 06:00N 50°43' W 127°29'0 0.0
2018-May-18 05:10N 50°43' W 127°29'0 0.0
2018-May-18 04:57N 50°43' W 127°29'0 0.1
2018-May-18 04:30N 50°43' W 127°29'0 0.0
2018-May-18 04:00N 50°43' W 127°29'0 0.1
2018-May-18 03:30N 50°43' W 127°29'0 0.0
2018-May-18 02:49N 50°43' W 127°29'0 0.0
2018-May-18 02:30N 50°43' W 127°29'0 0.0
2018-May-18 02:00N 50°43' W 127°29'0 0.0
2018-May-18 01:28N 50°43' W 127°29'0 0.0
2018-May-18 01:00N 50°43' W 127°29'0 0.0
2018-May-18 00:30N 50°43' W 127°29'0 0.0
2018-May-18 00:00N 50°43' W 127°29'0 0.0
2018-May-17 23:30N 50°43' W 127°29'0 0.0
2018-May-17 23:00N 50°43' W 127°29'0 0.0
2018-May-17 22:30N 50°43' W 127°29'0 0.0
2018-May-17 22:00N 50°43' W 127°29'0 0.0
2018-May-17 21:30N 50°43' W 127°29'0 0.0
2018-May-17 20:59N 50°43' W 127°29'0 0.0
2018-May-17 20:28N 50°43' W 127°29'0 0.0
2018-May-17 19:59N 50°43' W 127°29'0 0.0
2018-May-17 19:30N 50°43' W 127°29'0 0.0
2018-May-17 18:57N 50°43' W 127°29'0 0.0
2018-May-17 18:30N 50°43' W 127°29'0 0.1
2018-May-17 17:59N 50°43' W 127°29'0 0.0
2018-May-17 17:28N 50°43' W 127°29'0 0.1
2018-May-17 17:00N 50°43' W 127°29'0 0.0
2018-May-17 16:30N 50°43' W 127°29'0 0.0
2018-May-17 15:58N 50°43' W 127°29'0 0.1
2018-May-17 15:30N 50°43' W 127°29'0 0.1
2018-May-17 14:58N 50°43' W 127°29'0 0.0
2018-May-17 12:59N 50°43' W 127°29'0 0.0
2018-May-17 12:30N 50°43' W 127°29'0 0.1
2018-May-17 11:59N 50°43' W 127°29'0 0.1
2018-May-17 11:29N 50°43' W 127°29'0 0.0
2018-May-17 11:00N 50°43' W 127°29'0 0.0
2018-May-17 09:49N 50°43' W 127°29'0 0.1
2018-May-17 09:28N 50°43' W 127°29'0 0.0
2018-May-17 08:17N 50°43' W 127°29'0 0.0
2018-May-17 07:52N 50°43' W 127°29'0 0.0
2018-May-17 06:44N 50°43' W 127°29'0 0.0
2018-May-17 06:30N 50°43' W 127°29'0 0.1
2018-May-17 06:00N 50°43' W 127°29'0 0.0
2018-May-17 05:30N 50°43' W 127°29'0 0.0
2018-May-17 05:00N 50°43' W 127°29'0 0.0
2018-May-17 04:30N 50°43' W 127°29'0 0.0
2018-May-17 04:00N 50°43' W 127°29'0 0.0
2018-May-17 03:30N 50°43' W 127°29'0 0.0
2018-May-17 03:00N 50°43' W 127°29'0 0.0
2018-May-17 02:30N 50°43' W 127°29'0 0.0
2018-May-17 01:59N 50°43' W 127°29'0 0.0
2018-May-17 01:30N 50°43' W 127°29'0 0.1
2018-May-17 00:57N 50°43' W 127°29'1 1.6
2018-May-17 00:30N 50°43' W 127°28'0 0.0
2018-May-17 00:00N 50°43' W 127°28'0 0.0
2018-May-16 23:00N 50°43' W 127°28'0 0.0
2018-May-16 22:29N 50°43' W 127°28'0 0.0
2018-May-16 21:59N 50°43' W 127°28'0 0.0
2018-May-16 20:41N 50°43' W 127°28'0 0.0
2018-May-16 20:30N 50°43' W 127°28'0 0.0
2018-May-16 20:00N 50°43' W 127°28'0 0.0
2018-May-16 19:30N 50°43' W 127°28'0 0.0
2018-May-16 18:21N 50°43' W 127°28'0 0.0
2018-May-16 18:00N 50°43' W 127°28'0 0.0
2018-May-16 17:27N 50°43' W 127°28'1 0.9
2018-May-16 16:46N 50°43' W 127°29'1 2.3
2018-May-16 16:30N 50°43' W 127°28'0 0.0
2018-May-16 16:00N 50°43' W 127°28'0 0.0
2018-May-16 15:30N 50°43' W 127°28'0 0.0
2018-May-16 14:51N 50°43' W 127°28'0 0.0
2018-May-16 14:24N 50°43' W 127°28'0 0.0
2018-May-16 13:59N 50°43' W 127°28'0 0.0
2018-May-16 13:29N 50°43' W 127°28'0 0.0
2018-May-16 12:56N 50°43' W 127°28'0 0.0
2018-May-16 12:19N 50°43' W 127°28'0 0.0
2018-May-16 11:37N 50°43' W 127°28'1 5.0
2018-May-16 11:23N 50°44' W 127°28'3 7.6
2018-May-16 11:00N 50°47' W 127°31'4 8.6
2018-May-16 10:30N 50°49' W 127°37'5 9.0
2018-May-16 10:00N 50°50' W 127°44'5 9.7
2018-May-16 09:29N 50°52' W 127°51'5 9.6
2018-May-16 09:00N 50°53' W 127°58'5 9.3
2018-May-16 08:29N 50°53' W 128°06'4 9.1
2018-May-16 08:00N 50°51' W 128°12'4 8.8
2018-May-16 07:30N 50°50' W 128°19'4 8.6
2018-May-16 07:01N 50°48' W 128°25'4 7.1
2018-May-16 06:30N 50°45' W 128°26'4 8.9
2018-May-16 06:00N 50°41' W 128°24'4 8.6
2018-May-16 05:30N 50°37' W 128°20'5 8.7
2018-May-16 04:54N 50°33' W 128°15'6 8.7
2018-May-16 04:14N 50°29' W 128°09'3 8.9
2018-May-16 03:56N 50°27' W 128°06'1 0.1
2018-May-15 13:48N 50°27' W 128°05'8 8.6
2018-May-15 12:50N 50°32' W 128°15'4 8.5
2018-May-15 12:19N 50°35' W 128°19'3 8.8
2018-May-15 12:00N 50°37' W 128°22'5 9.3
2018-May-15 11:30N 50°42' W 128°25'4 8.9
2018-May-15 11:01N 50°46' W 128°27'4 8.5
2018-May-15 10:30N 50°49' W 128°23'5 9.9
2018-May-15 10:00N 50°51' W 128°15'5 9.3
2018-May-15 09:30N 50°53' W 128°08'5 8.9
2018-May-15 08:59N 50°54' W 128°01'4 8.6
2018-May-15 08:30N 50°53' W 127°55'4 7.9
2018-May-15 08:00N 50°52' W 127°49'4 8.5
2018-May-15 07:30N 50°50' W 127°42'4 8.5
2018-May-15 07:00N 50°49' W 127°36'4 8.4
2018-May-15 06:30N 50°47' W 127°30'4 7.7
2018-May-15 06:00N 50°43' W 127°28'0 0.1
2018-May-15 05:30N 50°43' W 127°28'0 0.0
2018-May-15 05:00N 50°43' W 127°28'0 0.0
2018-May-15 04:30N 50°43' W 127°28'0 0.0
2018-May-15 04:00N 50°43' W 127°28'0 0.0
2018-May-15 03:30N 50°43' W 127°28'0 0.0
2018-May-15 02:58N 50°43' W 127°28'0 0.0
2018-May-15 02:30N 50°43' W 127°28'0 0.0
2018-May-15 02:00N 50°43' W 127°28'0 0.0
2018-May-15 01:30N 50°43' W 127°28'0 0.0
2018-May-15 01:00N 50°43' W 127°28'0 0.0
2018-May-15 00:30N 50°43' W 127°28'0 0.0
2018-May-15 00:00N 50°43' W 127°28'0 0.0
2018-May-14 23:30N 50°43' W 127°28'0 0.7
2018-May-14 23:00N 50°43' W 127°28'0 0.0
2018-May-14 22:30N 50°43' W 127°28'0 0.8
2018-May-14 22:00N 50°43' W 127°28'0 0.0
2018-May-14 21:30N 50°43' W 127°28'0 0.0
2018-May-14 21:00N 50°43' W 127°28'0 0.0
2018-May-14 17:31N 50°43' W 127°28'0 0.0
2018-May-14 17:30N 50°43' W 127°28'0 0.0
2018-May-14 12:17N 50°43' W 127°28'0 0.0
2018-May-14 12:00N 50°43' W 127°28'0 0.0
2018-May-14 11:30N 50°43' W 127°28'0 0.0
2018-May-14 11:00N 50°43' W 127°28'0 0.0
2018-May-14 10:29N 50°43' W 127°28'0 0.0
2018-May-14 10:00N 50°43' W 127°28'0 0.0
2018-May-14 09:30N 50°43' W 127°28'0 0.0
2018-May-14 09:00N 50°43' W 127°28'0 0.0
2018-May-14 08:29N 50°43' W 127°28'0 0.0
2018-May-14 08:00N 50°43' W 127°28'0 0.0
2018-May-14 07:30N 50°43' W 127°28'0 0.0
2018-May-14 07:00N 50°43' W 127°28'0 0.0
2018-May-14 06:30N 50°43' W 127°28'0 0.0
2018-May-14 05:59N 50°43' W 127°28'0 0.0
2018-May-14 05:30N 50°43' W 127°28'3 6.5
2018-May-14 05:00N 50°47' W 127°30'5 9.8
2018-May-14 04:30N 50°48' W 127°37'5 9.8
2018-May-14 04:00N 50°50' W 127°44'5 9.5
2018-May-14 03:30N 50°52' W 127°51'4 7.9
2018-May-14 03:00N 50°54' W 127°56'0 0.0
2018-May-14 02:30N 50°54' W 127°56'0 0.0
2018-May-14 02:00N 50°54' W 127°56'0 0.0
2018-May-14 01:30N 50°54' W 127°56'0 0.0
2018-May-14 01:00N 50°54' W 127°56'0 0.0
2018-May-14 00:28N 50°54' W 127°56'0 0.0
2018-May-13 21:26N 50°54' W 127°56'21 1.7
2018-May-13 09:25N 50°43' W 127°28'0 0.0
2018-May-13 08:53N 50°43' W 127°28'0 0.0
2018-May-13 08:30N 50°43' W 127°28'1 1.3
2018-May-13 07:56N 50°43' W 127°29'0 0.0
2018-May-13 07:30N 50°43' W 127°29'0 0.0
2018-May-13 07:00N 50°43' W 127°29'0 0.0
2018-May-13 06:30N 50°43' W 127°29'0 0.0
2018-May-13 06:00N 50°43' W 127°29'0 0.0
2018-May-13 05:30N 50°43' W 127°29'0 0.0
2018-May-13 04:57N 50°43' W 127°29'0 0.0
2018-May-13 04:30N 50°43' W 127°29'0 0.0
2018-May-13 04:00N 50°43' W 127°29'0 0.0
2018-May-13 03:30N 50°43' W 127°29'0 0.0
2018-May-13 03:00N 50°43' W 127°29'0 0.0
2018-May-13 02:28N 50°43' W 127°29'0 0.0
2018-May-13 02:00N 50°43' W 127°29'0 0.0
2018-May-13 00:35N 50°43' W 127°29'0 0.0
2018-May-13 00:20N 50°43' W 127°29'0 0.0
2018-May-12 23:58N 50°43' W 127°29'0 0.0
2018-May-12 23:20N 50°43' W 127°29'0 0.0
2018-May-12 22:52N 50°43' W 127°29'0 0.0
2018-May-12 21:37N 50°43' W 127°29'0 0.0
2018-May-12 21:28N 50°43' W 127°29'0 0.0
2018-May-12 20:58N 50°43' W 127°29'0 0.0
2018-May-12 20:26N 50°43' W 127°29'0 0.0
2018-May-12 19:59N 50°43' W 127°29'0 0.0
2018-May-12 19:30N 50°43' W 127°29'0 0.0
2018-May-12 19:00N 50°43' W 127°29'0 0.0
2018-May-12 18:30N 50°43' W 127°29'0 0.0
2018-May-12 18:00N 50°43' W 127°29'0 0.0
2018-May-12 17:30N 50°43' W 127°29'0 0.0
2018-May-12 17:00N 50°43' W 127°29'0 0.0
2018-May-12 16:30N 50°43' W 127°29'0 0.0
2018-May-12 16:00N 50°43' W 127°29'0 0.0
2018-May-12 15:30N 50°43' W 127°29'0 0.0
2018-May-12 15:00N 50°43' W 127°29'0 0.0
2018-May-12 14:30N 50°43' W 127°29'0 0.0
2018-May-12 13:56N 50°43' W 127°29'0 0.0
2018-May-12 13:30N 50°43' W 127°29'0 0.0
2018-May-12 13:00N 50°43' W 127°29'0 0.0
2018-May-12 12:27N 50°43' W 127°29'0 0.0
2018-May-12 11:59N 50°43' W 127°29'  

Dump ship's entire track history